sensor_id;sensor_type;location;lat;lon;timestamp;P1;durP1;ratioP1;P2;durP2;ratioP2
7154;SDS011;3619;53.784;10.440;2024-02-23T00:00:31;123.23;;;118.93;;
7154;SDS011;3619;53.784;10.440;2024-02-23T00:02:58;133.33;;;128.67;;
7154;SDS011;3619;53.784;10.440;2024-02-23T00:05:26;114.83;;;110.77;;
7154;SDS011;3619;53.784;10.440;2024-02-23T00:07:53;114.03;;;110.00;;
7154;SDS011;3619;53.784;10.440;2024-02-23T00:10:23;121.63;;;117.37;;
7154;SDS011;3619;53.784;10.440;2024-02-23T00:12:50;105.90;;;102.13;;
7154;SDS011;3619;53.784;10.440;2024-02-23T00:15:19;115.13;;;111.07;;
7154;SDS011;3619;53.784;10.440;2024-02-23T00:17:46;90.07;;;86.77;;
7154;SDS011;3619;53.784;10.440;2024-02-23T00:20:13;100.27;;;96.67;;
7154;SDS011;3619;53.784;10.440;2024-02-23T00:22:41;83.10;;;80.00;;
7154;SDS011;3619;53.784;10.440;2024-02-23T00:25:10;81.73;;;78.73;;
7154;SDS011;3619;53.784;10.440;2024-02-23T00:27:37;96.07;;;92.60;;
7154;SDS011;3619;53.784;10.440;2024-02-23T00:30:07;79.13;;;76.20;;
7154;SDS011;3619;53.784;10.440;2024-02-23T00:32:36;79.23;;;76.33;;
7154;SDS011;3619;53.784;10.440;2024-02-23T00:35:03;88.87;;;85.63;;
7154;SDS011;3619;53.784;10.440;2024-02-23T00:37:31;88.13;;;84.90;;
7154;SDS011;3619;53.784;10.440;2024-02-23T00:40:03;92.00;;;88.67;;
7154;SDS011;3619;53.784;10.440;2024-02-23T00:42:36;90.83;;;87.53;;
7154;SDS011;3619;53.784;10.440;2024-02-23T00:45:04;86.17;;;83.00;;
7154;SDS011;3619;53.784;10.440;2024-02-23T00:47:31;78.47;;;75.57;;
7154;SDS011;3619;53.784;10.440;2024-02-23T00:50:14;78.87;;;75.97;;
7154;SDS011;3619;53.784;10.440;2024-02-23T00:52:41;81.87;;;78.87;;
7154;SDS011;3619;53.784;10.440;2024-02-23T00:55:08;78.93;;;76.03;;
7154;SDS011;3619;53.784;10.440;2024-02-23T00:57:36;73.07;;;70.37;;
7154;SDS011;3619;53.784;10.440;2024-02-23T01:00:04;64.13;;;61.70;;
7154;SDS011;3619;53.784;10.440;2024-02-23T01:02:36;67.50;;;64.93;;
7154;SDS011;3619;53.784;10.440;2024-02-23T01:05:05;73.87;;;71.13;;
7154;SDS011;3619;53.784;10.440;2024-02-23T01:07:34;60.33;;;58.03;;
7154;SDS011;3619;53.784;10.440;2024-02-23T01:10:04;63.97;;;61.53;;
7154;SDS011;3619;53.784;10.440;2024-02-23T01:12:32;71.10;;;68.43;;
7154;SDS011;3619;53.784;10.440;2024-02-23T01:14:59;78.23;;;75.33;;
7154;SDS011;3619;53.784;10.440;2024-02-23T01:17:26;87.83;;;84.63;;
7154;SDS011;3619;53.784;10.440;2024-02-23T01:19:53;77.60;;;74.73;;
7154;SDS011;3619;53.784;10.440;2024-02-23T01:22:21;76.83;;;74.00;;
7154;SDS011;3619;53.784;10.440;2024-02-23T01:24:48;73.60;;;70.83;;
7154;SDS011;3619;53.784;10.440;2024-02-23T01:27:14;69.03;;;66.43;;
7154;SDS011;3619;53.784;10.440;2024-02-23T01:29:41;65.20;;;62.70;;
7154;SDS011;3619;53.784;10.440;2024-02-23T01:32:08;63.63;;;61.23;;
7154;SDS011;3619;53.784;10.440;2024-02-23T01:34:35;68.93;;;66.37;;
7154;SDS011;3619;53.784;10.440;2024-02-23T01:37:02;59.73;;;57.47;;
7154;SDS011;3619;53.784;10.440;2024-02-23T01:39:30;74.10;;;71.33;;
7154;SDS011;3619;53.784;10.440;2024-02-23T01:41:57;67.00;;;64.50;;
7154;SDS011;3619;53.784;10.440;2024-02-23T01:44:24;65.43;;;62.93;;
7154;SDS011;3619;53.784;10.440;2024-02-23T01:46:51;69.00;;;66.43;;
7154;SDS011;3619;53.784;10.440;2024-02-23T01:49:18;62.07;;;59.70;;
7154;SDS011;3619;53.784;10.440;2024-02-23T01:51:47;68.50;;;65.90;;
7154;SDS011;3619;53.784;10.440;2024-02-23T01:54:14;72.50;;;69.80;;
7154;SDS011;3619;53.784;10.440;2024-02-23T01:56:44;74.40;;;71.63;;
7154;SDS011;3619;53.784;10.440;2024-02-23T01:59:11;76.87;;;74.03;;
7154;SDS011;3619;53.784;10.440;2024-02-23T02:01:38;69.20;;;66.60;;
7154;SDS011;3619;53.784;10.440;2024-02-23T02:04:08;69.70;;;67.10;;
7154;SDS011;3619;53.784;10.440;2024-02-23T02:06:35;75.23;;;72.43;;
7154;SDS011;3619;53.784;10.440;2024-02-23T02:09:03;71.00;;;68.37;;
7154;SDS011;3619;53.784;10.440;2024-02-23T02:11:31;65.67;;;63.17;;
7154;SDS011;3619;53.784;10.440;2024-02-23T02:13:59;69.07;;;66.47;;
7154;SDS011;3619;53.784;10.440;2024-02-23T02:16:26;66.93;;;64.43;;
7154;SDS011;3619;53.784;10.440;2024-02-23T02:18:54;70.50;;;67.87;;
7154;SDS011;3619;53.784;10.440;2024-02-23T02:21:20;64.03;;;61.63;;
7154;SDS011;3619;53.784;10.440;2024-02-23T02:23:50;67.03;;;64.53;;
7154;SDS011;3619;53.784;10.440;2024-02-23T02:26:17;62.73;;;60.33;;
7154;SDS011;3619;53.784;10.440;2024-02-23T02:28:44;59.07;;;56.83;;
7154;SDS011;3619;53.784;10.440;2024-02-23T02:31:16;61.47;;;59.17;;
7154;SDS011;3619;53.784;10.440;2024-02-23T02:33:43;51.47;;;49.47;;
7154;SDS011;3619;53.784;10.440;2024-02-23T02:36:11;47.10;;;45.30;;
7154;SDS011;3619;53.784;10.440;2024-02-23T02:38:38;39.37;;;37.87;;
7154;SDS011;3619;53.784;10.440;2024-02-23T02:41:05;47.33;;;45.53;;
7154;SDS011;3619;53.784;10.440;2024-02-23T02:43:34;46.43;;;44.63;;
7154;SDS011;3619;53.784;10.440;2024-02-23T02:46:01;50.97;;;49.00;;
7154;SDS011;3619;53.784;10.440;2024-02-23T02:48:29;42.33;;;40.73;;
7154;SDS011;3619;53.784;10.440;2024-02-23T02:50:56;49.67;;;47.77;;
7154;SDS011;3619;53.784;10.440;2024-02-23T02:53:23;44.00;;;42.30;;
7154;SDS011;3619;53.784;10.440;2024-02-23T02:55:50;44.63;;;42.93;;
7154;SDS011;3619;53.784;10.440;2024-02-23T02:58:17;42.50;;;40.90;;
7154;SDS011;3619;53.784;10.440;2024-02-23T03:00:43;41.63;;;40.03;;
7154;SDS011;3619;53.784;10.440;2024-02-23T03:03:10;40.03;;;38.53;;
7154;SDS011;3619;53.784;10.440;2024-02-23T03:05:39;40.30;;;38.77;;
7154;SDS011;3619;53.784;10.440;2024-02-23T03:08:06;47.57;;;45.77;;
7154;SDS011;3619;53.784;10.440;2024-02-23T03:10:33;47.83;;;46.03;;
7154;SDS011;3619;53.784;10.440;2024-02-23T03:13:00;41.73;;;40.13;;
7154;SDS011;3619;53.784;10.440;2024-02-23T03:15:27;47.43;;;45.63;;
7154;SDS011;3619;53.784;10.440;2024-02-23T03:17:55;42.40;;;40.80;;
7154;SDS011;3619;53.784;10.440;2024-02-23T03:20:23;47.93;;;46.13;;
7154;SDS011;3619;53.784;10.440;2024-02-23T03:22:51;45.03;;;43.33;;
7154;SDS011;3619;53.784;10.440;2024-02-23T03:25:18;47.73;;;45.93;;
7154;SDS011;3619;53.784;10.440;2024-02-23T03:27:45;47.93;;;46.13;;
7154;SDS011;3619;53.784;10.440;2024-02-23T03:30:13;47.67;;;45.87;;
7154;SDS011;3619;53.784;10.440;2024-02-23T03:32:40;45.47;;;43.73;;
7154;SDS011;3619;53.784;10.440;2024-02-23T03:35:08;49.87;;;47.97;;
7154;SDS011;3619;53.784;10.440;2024-02-23T03:37:35;42.33;;;40.73;;
7154;SDS011;3619;53.784;10.440;2024-02-23T03:40:04;46.80;;;45.00;;
7154;SDS011;3619;53.784;10.440;2024-02-23T03:42:32;49.23;;;47.33;;
7154;SDS011;3619;53.784;10.440;2024-02-23T03:44:59;52.60;;;50.60;;
7154;SDS011;3619;53.784;10.440;2024-02-23T03:47:26;44.60;;;42.90;;
7154;SDS011;3619;53.784;10.440;2024-02-23T03:49:53;49.23;;;47.33;;
7154;SDS011;3619;53.784;10.440;2024-02-23T03:52:20;49.63;;;47.73;;
7154;SDS011;3619;53.784;10.440;2024-02-23T03:54:47;46.40;;;44.60;;
7154;SDS011;3619;53.784;10.440;2024-02-23T03:57:18;45.73;;;44.03;;
7154;SDS011;3619;53.784;10.440;2024-02-23T03:59:51;50.43;;;48.53;;
7154;SDS011;3619;53.784;10.440;2024-02-23T04:02:18;53.10;;;51.07;;
7154;SDS011;3619;53.784;10.440;2024-02-23T04:04:45;51.80;;;49.80;;
7154;SDS011;3619;53.784;10.440;2024-02-23T04:07:12;53.17;;;51.17;;
7154;SDS011;3619;53.784;10.440;2024-02-23T04:09:39;54.10;;;52.00;;
7154;SDS011;3619;53.784;10.440;2024-02-23T04:12:06;45.90;;;44.13;;
7154;SDS011;3619;53.784;10.440;2024-02-23T04:14:34;46.17;;;44.40;;
7154;SDS011;3619;53.784;10.440;2024-02-23T04:17:01;46.47;;;44.67;;
7154;SDS011;3619;53.784;10.440;2024-02-23T04:19:29;44.10;;;42.40;;
7154;SDS011;3619;53.784;10.440;2024-02-23T04:21:55;45.73;;;44.00;;
7154;SDS011;3619;53.784;10.440;2024-02-23T04:24:22;44.93;;;43.23;;
7154;SDS011;3619;53.784;10.440;2024-02-23T04:26:49;46.73;;;44.93;;
7154;SDS011;3619;53.784;10.440;2024-02-23T04:29:16;41.50;;;39.90;;
7154;SDS011;3619;53.784;10.440;2024-02-23T04:31:44;46.10;;;44.30;;
7154;SDS011;3619;53.784;10.440;2024-02-23T04:34:11;49.60;;;47.70;;
7154;SDS011;3619;53.784;10.440;2024-02-23T04:36:39;47.60;;;45.80;;
7154;SDS011;3619;53.784;10.440;2024-02-23T04:39:06;52.10;;;50.10;;
7154;SDS011;3619;53.784;10.440;2024-02-23T04:41:33;50.53;;;48.63;;
7154;SDS011;3619;53.784;10.440;2024-02-23T04:44:00;47.63;;;45.83;;
7154;SDS011;3619;53.784;10.440;2024-02-23T04:46:27;42.77;;;41.13;;
7154;SDS011;3619;53.784;10.440;2024-02-23T04:48:56;43.87;;;42.17;;
7154;SDS011;3619;53.784;10.440;2024-02-23T04:51:23;42.73;;;41.13;;
7154;SDS011;3619;53.784;10.440;2024-02-23T04:53:49;45.67;;;43.93;;
7154;SDS011;3619;53.784;10.440;2024-02-23T04:56:16;45.83;;;44.10;;
7154;SDS011;3619;53.784;10.440;2024-02-23T04:58:43;45.60;;;43.90;;
7154;SDS011;3619;53.784;10.440;2024-02-23T05:01:10;45.40;;;43.70;;
7154;SDS011;3619;53.784;10.440;2024-02-23T05:03:37;41.57;;;39.97;;
7154;SDS011;3619;53.784;10.440;2024-02-23T05:06:06;43.30;;;41.67;;
7154;SDS011;3619;53.784;10.440;2024-02-23T05:08:33;46.17;;;44.40;;
7154;SDS011;3619;53.784;10.440;2024-02-23T05:11:00;50.20;;;48.30;;
7154;SDS011;3619;53.784;10.440;2024-02-23T05:13:27;46.67;;;44.87;;
7154;SDS011;3619;53.784;10.440;2024-02-23T05:15:55;52.03;;;50.03;;
7154;SDS011;3619;53.784;10.440;2024-02-23T05:18:22;46.87;;;45.07;;
7154;SDS011;3619;53.784;10.440;2024-02-23T05:20:49;45.60;;;43.90;;
7154;SDS011;3619;53.784;10.440;2024-02-23T05:23:17;48.27;;;46.37;;
7154;SDS011;3619;53.784;10.440;2024-02-23T05:25:44;47.03;;;45.23;;
7154;SDS011;3619;53.784;10.440;2024-02-23T05:28:21;45.07;;;43.37;;
7154;SDS011;3619;53.784;10.440;2024-02-23T05:30:50;48.50;;;46.63;;
7154;SDS011;3619;53.784;10.440;2024-02-23T05:33:29;51.13;;;49.17;;
7154;SDS011;3619;53.784;10.440;2024-02-23T05:36:01;47.53;;;45.73;;
7154;SDS011;3619;53.784;10.440;2024-02-23T05:38:43;50.43;;;48.53;;
7154;SDS011;3619;53.784;10.440;2024-02-23T05:41:11;45.63;;;43.87;;
7154;SDS011;3619;53.784;10.440;2024-02-23T05:43:39;48.40;;;46.57;;
7154;SDS011;3619;53.784;10.440;2024-02-23T05:46:05;46.63;;;44.83;;
7154;SDS011;3619;53.784;10.440;2024-02-23T05:48:32;49.63;;;47.73;;
7154;SDS011;3619;53.784;10.440;2024-02-23T05:50:59;43.80;;;42.10;;
7154;SDS011;3619;53.784;10.440;2024-02-23T05:53:27;44.40;;;42.70;;
7154;SDS011;3619;53.784;10.440;2024-02-23T05:55:59;41.43;;;39.83;;
7154;SDS011;3619;53.784;10.440;2024-02-23T05:58:26;44.67;;;42.97;;
7154;SDS011;3619;53.784;10.440;2024-02-23T06:00:53;45.90;;;44.17;;
7154;SDS011;3619;53.784;10.440;2024-02-23T06:03:19;41.57;;;39.97;;
7154;SDS011;3619;53.784;10.440;2024-02-23T06:05:46;44.13;;;42.43;;
7154;SDS011;3619;53.784;10.440;2024-02-23T06:08:13;41.40;;;39.80;;
7154;SDS011;3619;53.784;10.440;2024-02-23T06:10:40;44.80;;;43.10;;
7154;SDS011;3619;53.784;10.440;2024-02-23T06:13:09;43.93;;;42.23;;
7154;SDS011;3619;53.784;10.440;2024-02-23T06:15:36;45.47;;;43.73;;
7154;SDS011;3619;53.784;10.440;2024-02-23T06:18:04;49.90;;;48.00;;
7154;SDS011;3619;53.784;10.440;2024-02-23T06:20:31;51.17;;;49.17;;
7154;SDS011;3619;53.784;10.440;2024-02-23T06:23:00;49.73;;;47.83;;
7154;SDS011;3619;53.784;10.440;2024-02-23T06:25:27;39.70;;;38.20;;
7154;SDS011;3619;53.784;10.440;2024-02-23T06:27:54;42.70;;;41.10;;
7154;SDS011;3619;53.784;10.440;2024-02-23T06:30:22;41.43;;;39.87;;
7154;SDS011;3619;53.784;10.440;2024-02-23T06:32:49;42.40;;;40.80;;
7154;SDS011;3619;53.784;10.440;2024-02-23T06:35:16;41.87;;;40.27;;
7154;SDS011;3619;53.784;10.440;2024-02-23T06:37:43;44.60;;;42.90;;
7154;SDS011;3619;53.784;10.440;2024-02-23T06:40:10;40.33;;;38.80;;
7154;SDS011;3619;53.784;10.440;2024-02-23T06:42:37;42.00;;;40.40;;
7154;SDS011;3619;53.784;10.440;2024-02-23T06:45:05;39.23;;;37.73;;
7154;SDS011;3619;53.784;10.440;2024-02-23T06:47:34;36.97;;;35.57;;
7154;SDS011;3619;53.784;10.440;2024-02-23T06:50:06;38.23;;;36.73;;
7154;SDS011;3619;53.784;10.440;2024-02-23T06:52:33;37.83;;;36.40;;
7154;SDS011;3619;53.784;10.440;2024-02-23T06:55:00;39.73;;;38.23;;
7154;SDS011;3619;53.784;10.440;2024-02-23T06:57:27;41.00;;;39.40;;
7154;SDS011;3619;53.784;10.440;2024-02-23T06:59:57;36.00;;;34.60;;
7154;SDS011;3619;53.784;10.440;2024-02-23T07:02:24;42.17;;;40.57;;
7154;SDS011;3619;53.784;10.440;2024-02-23T07:04:53;41.27;;;39.67;;
7154;SDS011;3619;53.784;10.440;2024-02-23T07:07:21;34.50;;;33.20;;
7154;SDS011;3619;53.784;10.440;2024-02-23T07:09:49;33.53;;;32.27;;
7154;SDS011;3619;53.784;10.440;2024-02-23T07:12:17;35.23;;;33.93;;
7154;SDS011;3619;53.784;10.440;2024-02-23T07:14:44;36.73;;;35.33;;
7154;SDS011;3619;53.784;10.440;2024-02-23T07:17:11;38.77;;;37.27;;
7154;SDS011;3619;53.784;10.440;2024-02-23T07:19:39;38.50;;;37.00;;
7154;SDS011;3619;53.784;10.440;2024-02-23T07:22:11;35.23;;;33.93;;
7154;SDS011;3619;53.784;10.440;2024-02-23T07:24:39;31.67;;;30.47;;
7154;SDS011;3619;53.784;10.440;2024-02-23T07:27:09;32.77;;;31.57;;
7154;SDS011;3619;53.784;10.440;2024-02-23T07:29:36;34.20;;;32.90;;
7154;SDS011;3619;53.784;10.440;2024-02-23T07:32:03;34.10;;;32.80;;
7154;SDS011;3619;53.784;10.440;2024-02-23T07:34:31;32.37;;;31.17;;
7154;SDS011;3619;53.784;10.440;2024-02-23T07:36:58;31.60;;;30.40;;
7154;SDS011;3619;53.784;10.440;2024-02-23T07:39:26;30.43;;;29.27;;
7154;SDS011;3619;53.784;10.440;2024-02-23T07:41:55;29.53;;;28.43;;
7154;SDS011;3619;53.784;10.440;2024-02-23T07:44:22;30.73;;;29.53;;
7154;SDS011;3619;53.784;10.440;2024-02-23T07:46:50;31.73;;;30.53;;
7154;SDS011;3619;53.784;10.440;2024-02-23T07:49:17;28.40;;;27.30;;
7154;SDS011;3619;53.784;10.440;2024-02-23T07:51:45;30.67;;;29.50;;
7154;SDS011;3619;53.784;10.440;2024-02-23T07:54:12;33.07;;;31.80;;
7154;SDS011;3619;53.784;10.440;2024-02-23T07:56:40;32.37;;;31.17;;
7154;SDS011;3619;53.784;10.440;2024-02-23T07:59:07;29.60;;;28.50;;
7154;SDS011;3619;53.784;10.440;2024-02-23T08:01:34;29.07;;;27.97;;
7154;SDS011;3619;53.784;10.440;2024-02-23T08:04:01;31.30;;;30.10;;
7154;SDS011;3619;53.784;10.440;2024-02-23T08:06:28;29.77;;;28.67;;
7154;SDS011;3619;53.784;10.440;2024-02-23T08:08:56;30.47;;;29.30;;
7154;SDS011;3619;53.784;10.440;2024-02-23T08:11:23;31.03;;;29.83;;
7154;SDS011;3619;53.784;10.440;2024-02-23T08:13:51;35.50;;;34.13;;
7154;SDS011;3619;53.784;10.440;2024-02-23T08:16:18;34.77;;;33.47;;
7154;SDS011;3619;53.784;10.440;2024-02-23T08:18:45;33.83;;;32.53;;
7154;SDS011;3619;53.784;10.440;2024-02-23T08:21:15;36.17;;;34.77;;
7154;SDS011;3619;53.784;10.440;2024-02-23T08:23:43;33.73;;;32.43;;
7154;SDS011;3619;53.784;10.440;2024-02-23T08:26:11;32.37;;;31.17;;
7154;SDS011;3619;53.784;10.440;2024-02-23T08:28:38;32.20;;;31.00;;
7154;SDS011;3619;53.784;10.440;2024-02-23T08:31:06;30.03;;;28.93;;
7154;SDS011;3619;53.784;10.440;2024-02-23T08:33:33;30.13;;;29.00;;
7154;SDS011;3619;53.784;10.440;2024-02-23T08:36:00;29.27;;;28.17;;
7154;SDS011;3619;53.784;10.440;2024-02-23T08:38:30;30.53;;;29.37;;
7154;SDS011;3619;53.784;10.440;2024-02-23T08:40:58;30.50;;;29.33;;
7154;SDS011;3619;53.784;10.440;2024-02-23T08:43:25;28.83;;;27.73;;
7154;SDS011;3619;53.784;10.440;2024-02-23T08:45:52;27.53;;;26.50;;
7154;SDS011;3619;53.784;10.440;2024-02-23T08:48:21;28.87;;;27.77;;
7154;SDS011;3619;53.784;10.440;2024-02-23T08:50:48;26.57;;;25.57;;
7154;SDS011;3619;53.784;10.440;2024-02-23T08:53:17;27.40;;;26.40;;
7154;SDS011;3619;53.784;10.440;2024-02-23T08:55:44;24.60;;;23.70;;
7154;SDS011;3619;53.784;10.440;2024-02-23T08:58:11;24.73;;;23.80;;
7154;SDS011;3619;53.784;10.440;2024-02-23T09:00:39;26.43;;;25.43;;
7154;SDS011;3619;53.784;10.440;2024-02-23T09:03:06;26.20;;;25.20;;
7154;SDS011;3619;53.784;10.440;2024-02-23T09:05:34;23.23;;;22.33;;
7154;SDS011;3619;53.784;10.440;2024-02-23T09:08:04;22.03;;;21.23;;
7154;SDS011;3619;53.784;10.440;2024-02-23T09:10:32;20.30;;;19.53;;
7154;SDS011;3619;53.784;10.440;2024-02-23T09:13:00;20.23;;;19.43;;
7154;SDS011;3619;53.784;10.440;2024-02-23T09:15:28;19.13;;;18.43;;
7154;SDS011;3619;53.784;10.440;2024-02-23T09:17:56;19.83;;;19.13;;
7154;SDS011;3619;53.784;10.440;2024-02-23T09:28:09;17.80;;;17.10;;
7154;SDS011;3619;53.784;10.440;2024-02-23T09:30:39;15.60;;;15.00;;
7154;SDS011;3619;53.784;10.440;2024-02-23T09:33:07;16.40;;;15.80;;
7154;SDS011;3619;53.784;10.440;2024-02-23T09:38:11;15.57;;;14.97;;
7154;SDS011;3619;53.784;10.440;2024-02-23T09:40:41;16.73;;;16.13;;
7154;SDS011;3619;53.784;10.440;2024-02-23T09:43:08;15.60;;;15.00;;
7154;SDS011;3619;53.784;10.440;2024-02-23T09:45:42;15.53;;;14.93;;
7154;SDS011;3619;53.784;10.440;2024-02-23T09:48:15;13.57;;;13.07;;
7154;SDS011;3619;53.784;10.440;2024-02-23T09:50:45;13.17;;;12.67;;
7154;SDS011;3619;53.784;10.440;2024-02-23T09:53:16;14.50;;;14.00;;
7154;SDS011;3619;53.784;10.440;2024-02-23T09:55:48;11.13;;;10.73;;
7154;SDS011;3619;53.784;10.440;2024-02-23T09:58:22;11.20;;;10.80;;
7154;SDS011;3619;53.784;10.440;2024-02-23T10:00:50;11.87;;;11.47;;
7154;SDS011;3619;53.784;10.440;2024-02-23T10:03:17;12.70;;;12.20;;
7154;SDS011;3619;53.784;10.440;2024-02-23T10:05:44;11.23;;;10.83;;
7154;SDS011;3619;53.784;10.440;2024-02-23T10:08:11;11.50;;;11.10;;
7154;SDS011;3619;53.784;10.440;2024-02-23T10:10:38;11.20;;;10.80;;
7154;SDS011;3619;53.784;10.440;2024-02-23T10:13:06;10.23;;;9.83;;
7154;SDS011;3619;53.784;10.440;2024-02-23T10:15:35;11.77;;;11.37;;
7154;SDS011;3619;53.784;10.440;2024-02-23T10:18:02;12.67;;;12.17;;
7154;SDS011;3619;53.784;10.440;2024-02-23T10:20:29;10.50;;;10.10;;
7154;SDS011;3619;53.784;10.440;2024-02-23T10:22:56;12.13;;;11.70;;
7154;SDS011;3619;53.784;10.440;2024-02-23T10:25:24;11.50;;;11.10;;
7154;SDS011;3619;53.784;10.440;2024-02-23T10:27:51;11.63;;;11.23;;
7154;SDS011;3619;53.784;10.440;2024-02-23T10:30:18;12.43;;;11.97;;
7154;SDS011;3619;53.784;10.440;2024-02-23T10:32:46;11.43;;;11.03;;
7154;SDS011;3619;53.784;10.440;2024-02-23T10:35:15;9.87;;;9.47;;
7154;SDS011;3619;53.784;10.440;2024-02-23T10:37:43;9.40;;;9.07;;
7154;SDS011;3619;53.784;10.440;2024-02-23T10:40:14;10.17;;;9.77;;
7154;SDS011;3619;53.784;10.440;2024-02-23T10:42:48;8.50;;;8.20;;
7154;SDS011;3619;53.784;10.440;2024-02-23T10:45:19;8.77;;;8.47;;
7154;SDS011;3619;53.784;10.440;2024-02-23T10:47:49;9.30;;;9.00;;
7154;SDS011;3619;53.784;10.440;2024-02-23T10:50:20;7.90;;;7.60;;
7154;SDS011;3619;53.784;10.440;2024-02-23T10:52:52;8.83;;;8.53;;
7154;SDS011;3619;53.784;10.440;2024-02-23T10:55:22;7.40;;;7.10;;
7154;SDS011;3619;53.784;10.440;2024-02-23T10:57:51;7.30;;;7.00;;
7154;SDS011;3619;53.784;10.440;2024-02-23T11:00:21;7.30;;;7.00;;
7154;SDS011;3619;53.784;10.440;2024-02-23T11:02:51;8.20;;;7.90;;
7154;SDS011;3619;53.784;10.440;2024-02-23T11:05:20;7.33;;;7.03;;
7154;SDS011;3619;53.784;10.440;2024-02-23T11:07:55;6.20;;;6.00;;
7154;SDS011;3619;53.784;10.440;2024-02-23T11:10:40;5.60;;;5.40;;
7154;SDS011;3619;53.784;10.440;2024-02-23T11:13:08;5.87;;;5.67;;
7154;SDS011;3619;53.784;10.440;2024-02-23T11:15:41;6.63;;;6.43;;
7154;SDS011;3619;53.784;10.440;2024-02-23T11:18:23;6.80;;;6.60;;
7154;SDS011;3619;53.784;10.440;2024-02-23T11:20:58;6.87;;;6.63;;
7154;SDS011;3619;53.784;10.440;2024-02-23T11:23:26;5.40;;;5.20;;
7154;SDS011;3619;53.784;10.440;2024-02-23T11:26:04;5.10;;;4.90;;
7154;SDS011;3619;53.784;10.440;2024-02-23T11:28:41;4.73;;;4.53;;
7154;SDS011;3619;53.784;10.440;2024-02-23T11:31:15;5.03;;;4.83;;
7154;SDS011;3619;53.784;10.440;2024-02-23T11:36:34;4.60;;;4.40;;
7154;SDS011;3619;53.784;10.440;2024-02-23T11:39:02;5.27;;;5.07;;
7154;SDS011;3619;53.784;10.440;2024-02-23T11:41:29;4.10;;;4.00;;
7154;SDS011;3619;53.784;10.440;2024-02-23T11:43:58;4.33;;;4.23;;
7154;SDS011;3619;53.784;10.440;2024-02-23T11:46:25;4.13;;;4.03;;
7154;SDS011;3619;53.784;10.440;2024-02-23T11:48:55;4.73;;;4.53;;
7154;SDS011;3619;53.784;10.440;2024-02-23T12:30:16;2.97;;;2.87;;
7154;SDS011;3619;53.784;10.440;2024-02-23T12:32:43;3.23;;;3.13;;
7154;SDS011;3619;53.784;10.440;2024-02-23T12:35:17;2.97;;;2.87;;
7154;SDS011;3619;53.784;10.440;2024-02-23T12:37:45;3.20;;;3.10;;
7154;SDS011;3619;53.784;10.440;2024-02-23T12:42:57;2.90;;;2.80;;
7154;SDS011;3619;53.784;10.440;2024-02-23T12:45:28;2.80;;;2.70;;
7154;SDS011;3619;53.784;10.440;2024-02-23T12:47:55;3.10;;;3.00;;
7154;SDS011;3619;53.784;10.440;2024-02-23T12:50:23;3.37;;;3.27;;
7154;SDS011;3619;53.784;10.440;2024-02-23T12:52:50;3.13;;;3.03;;
7154;SDS011;3619;53.784;10.440;2024-02-23T12:55:17;2.63;;;2.53;;
7154;SDS011;3619;53.784;10.440;2024-02-23T12:57:44;2.63;;;2.53;;
7154;SDS011;3619;53.784;10.440;2024-02-23T13:00:12;2.97;;;2.87;;
7154;SDS011;3619;53.784;10.440;2024-02-23T13:02:41;2.63;;;2.53;;
7154;SDS011;3619;53.784;10.440;2024-02-23T13:05:11;2.60;;;2.50;;
7154;SDS011;3619;53.784;10.440;2024-02-23T13:07:38;2.47;;;2.37;;
7154;SDS011;3619;53.784;10.440;2024-02-23T13:10:07;3.33;;;3.23;;
7154;SDS011;3619;53.784;10.440;2024-02-23T13:12:35;2.10;;;2.00;;
7154;SDS011;3619;53.784;10.440;2024-02-23T13:15:07;2.33;;;2.23;;
7154;SDS011;3619;53.784;10.440;2024-02-23T13:17:36;2.73;;;2.63;;
7154;SDS011;3619;53.784;10.440;2024-02-23T13:20:09;2.17;;;2.07;;
7154;SDS011;3619;53.784;10.440;2024-02-23T13:22:38;2.10;;;2.00;;
7154;SDS011;3619;53.784;10.440;2024-02-23T13:25:08;2.10;;;2.00;;
7154;SDS011;3619;53.784;10.440;2024-02-23T13:27:35;2.30;;;2.20;;
7154;SDS011;3619;53.784;10.440;2024-02-23T13:30:05;2.10;;;2.00;;
7154;SDS011;3619;53.784;10.440;2024-02-23T13:35:13;2.20;;;2.10;;
7154;SDS011;3619;53.784;10.440;2024-02-23T13:37:41;2.60;;;2.50;;
7154;SDS011;3619;53.784;10.440;2024-02-23T13:40:09;2.00;;;1.90;;
7154;SDS011;3619;53.784;10.440;2024-02-23T13:42:37;2.00;;;1.90;;
7154;SDS011;3619;53.784;10.440;2024-02-23T13:45:08;2.10;;;2.00;;
7154;SDS011;3619;53.784;10.440;2024-02-23T13:55:48;2.17;;;2.07;;
7154;SDS011;3619;53.784;10.440;2024-02-23T13:58:58;2.10;;;2.00;;
7154;SDS011;3619;53.784;10.440;2024-02-23T14:04:23;2.20;;;2.10;;
7154;SDS011;3619;53.784;10.440;2024-02-23T14:07:04;2.00;;;1.90;;
7154;SDS011;3619;53.784;10.440;2024-02-23T14:09:34;1.80;;;1.80;;
7154;SDS011;3619;53.784;10.440;2024-02-23T14:12:02;2.00;;;1.90;;
7154;SDS011;3619;53.784;10.440;2024-02-23T14:27:31;1.97;;;1.87;;
7154;SDS011;3619;53.784;10.440;2024-02-23T14:30:04;2.10;;;2.00;;
7154;SDS011;3619;53.784;10.440;2024-02-23T14:32:33;2.07;;;1.97;;
7154;SDS011;3619;53.784;10.440;2024-02-23T14:35:10;2.10;;;2.00;;
7154;SDS011;3619;53.784;10.440;2024-02-23T14:37:38;1.97;;;1.87;;
7154;SDS011;3619;53.784;10.440;2024-02-23T14:40:06;1.60;;;1.60;;
7154;SDS011;3619;53.784;10.440;2024-02-23T14:42:36;2.20;;;2.10;;
7154;SDS011;3619;53.784;10.440;2024-02-23T14:45:03;2.33;;;2.23;;
7154;SDS011;3619;53.784;10.440;2024-02-23T14:47:31;2.00;;;1.90;;
7154;SDS011;3619;53.784;10.440;2024-02-23T14:50:01;2.30;;;2.20;;
7154;SDS011;3619;53.784;10.440;2024-02-23T14:52:27;1.80;;;1.80;;
7154;SDS011;3619;53.784;10.440;2024-02-23T14:57:30;2.13;;;2.03;;
7154;SDS011;3619;53.784;10.440;2024-02-23T14:59:59;2.27;;;2.17;;
7154;SDS011;3619;53.784;10.440;2024-02-23T15:02:29;2.00;;;1.90;;
7154;SDS011;3619;53.784;10.440;2024-02-23T15:04:59;2.23;;;2.13;;
7154;SDS011;3619;53.784;10.440;2024-02-23T15:07:27;1.50;;;1.50;;
7154;SDS011;3619;53.784;10.440;2024-02-23T15:09:57;1.80;;;1.80;;
7154;SDS011;3619;53.784;10.440;2024-02-23T15:12:24;1.70;;;1.70;;
7154;SDS011;3619;53.784;10.440;2024-02-23T15:14:55;1.77;;;1.77;;
7154;SDS011;3619;53.784;10.440;2024-02-23T15:17:23;1.70;;;1.70;;
7154;SDS011;3619;53.784;10.440;2024-02-23T15:19:50;1.80;;;1.80;;
7154;SDS011;3619;53.784;10.440;2024-02-23T15:22:21;1.63;;;1.63;;
7154;SDS011;3619;53.784;10.440;2024-02-23T15:24:50;2.03;;;1.93;;
7154;SDS011;3619;53.784;10.440;2024-02-23T15:27:21;1.97;;;1.87;;
7154;SDS011;3619;53.784;10.440;2024-02-23T15:29:49;2.20;;;2.10;;
7154;SDS011;3619;53.784;10.440;2024-02-23T15:32:16;1.80;;;1.80;;
7154;SDS011;3619;53.784;10.440;2024-02-23T15:34:45;1.87;;;1.87;;
7154;SDS011;3619;53.784;10.440;2024-02-23T15:37:12;1.90;;;1.83;;
7154;SDS011;3619;53.784;10.440;2024-02-23T15:39:39;1.77;;;1.77;;
7154;SDS011;3619;53.784;10.440;2024-02-23T15:42:06;1.60;;;1.60;;
7154;SDS011;3619;53.784;10.440;2024-02-23T15:44:33;1.67;;;1.67;;
7154;SDS011;3619;53.784;10.440;2024-02-23T15:47:02;2.03;;;1.93;;
7154;SDS011;3619;53.784;10.440;2024-02-23T15:49:29;1.73;;;1.73;;
7154;SDS011;3619;53.784;10.440;2024-02-23T15:52:01;2.00;;;1.90;;
7154;SDS011;3619;53.784;10.440;2024-02-23T15:54:28;1.67;;;1.67;;
7154;SDS011;3619;53.784;10.440;2024-02-23T15:56:56;1.63;;;1.63;;
7154;SDS011;3619;53.784;10.440;2024-02-23T15:59:24;2.03;;;1.93;;
7154;SDS011;3619;53.784;10.440;2024-02-23T16:01:51;1.80;;;1.80;;
7154;SDS011;3619;53.784;10.440;2024-02-23T16:04:19;1.60;;;1.60;;
7154;SDS011;3619;53.784;10.440;2024-02-23T16:06:45;1.73;;;1.73;;
7154;SDS011;3619;53.784;10.440;2024-02-23T16:09:14;1.80;;;1.80;;
7154;SDS011;3619;53.784;10.440;2024-02-23T16:11:42;1.53;;;1.53;;